Calico Skies — FGD6481 — position and weather

sailwx.info

Track history (hours):
 
Tides and Currents Weather Stations Pressure Air Temp Water Temp Dewpoint Dewpoint Depression Visibility Wind Speed Wind Dir Waves Ship Positions

Calico Skies

Last reported at 2017-Sep-02 09:23 UTC. Time now 2017-Sep-20 00:07 UTC.
Position N 47°35' W 002°52'.
Warning: this ship's position is 17 days out of date.

Length 13 m.

Type: Sailing vessel. MMSI: 227579590.

Date/timePositionNaut miles runAvg speedWind from/ knotsBaromVisibWave heightAir tempDewpointWater temp
2017-Sep-02 09:23N 47°35' W 002°52'1 2.7
2017-Sep-02 09:00N 47°36' W 002°51'0 0.0
2017-Sep-02 08:30N 47°36' W 002°51'1 1.9
2017-Sep-02 08:00N 47°35' W 002°52'0 0.0
2017-Sep-01 18:24N 47°35' W 002°52'1 1.7
2017-Sep-01 18:00N 47°35' W 002°52'2 3.4
2017-Sep-01 17:30N 47°34' W 002°54'1 2.9
2017-Sep-01 17:00N 47°33' W 002°55'2 3.9
2017-Sep-01 16:30N 47°31' W 002°57'3 6.6
2017-Sep-01 16:00N 47°29' W 003°01'3 5.7
2017-Sep-01 15:30N 47°27' W 003°04'3 5.9
2017-Sep-01 15:00N 47°27' W 003°08'4 7.8
2017-Sep-01 14:30N 47°28' W 003°14'3 6.1
2017-Sep-01 14:00N 47°29' W 003°18'3 6.0
2017-Sep-01 13:30N 47°30' W 003°22'3 6.5
2017-Sep-01 13:00N 47°31' W 003°27'4 7.3
2017-Sep-01 12:30N 47°31' W 003°32'4 7.0
2017-Sep-01 11:59N 47°32' W 003°37'65 5.9
2017-Sep-01 00:58N 47°58' W 005°05'6 6.3
2017-Aug-31 23:58N 48°03' W 005°11'6 6.2
2017-Aug-31 22:58N 48°08' W 005°16'6 5.7
2017-Aug-31 21:58N 48°13' W 005°21'  
2017-Aug-26 21:54N 49°57' W 006°17'2 5.7
2017-Aug-26 21:30N 49°55' W 006°15'74 6.8
2017-Aug-26 10:30N 48°49' W 005°24'3 5.1
2017-Aug-26 10:00N 48°47' W 005°22'2 4.9
2017-Aug-26 09:30N 48°45' W 005°19'3 6.2
2017-Aug-26 09:00N 48°42' W 005°16'2 4.3
2017-Aug-26 08:29N 48°40' W 005°14'2 4.9
2017-Aug-26 08:00N 48°38' W 005°13'3 6.1
2017-Aug-26 07:31N 48°35' W 005°13'5 8.1
2017-Aug-26 06:54N 48°30' W 005°11'9 8.7
2017-Aug-26 05:53N 48°22' W 005°06'4 7.6
2017-Aug-26 05:22N 48°19' W 005°03'3 7.4
2017-Aug-26 04:58N 48°16' W 005°01'6 6.5
2017-Aug-26 03:58N 48°11' W 004°56'3 6.7
2017-Aug-26 03:30N 48°08' W 004°54'3 6.5
2017-Aug-26 03:00N 48°05' W 004°52'3 5.9
2017-Aug-26 02:30N 48°03' W 004°48'25 1.2
2017-Aug-25 04:58N 47°45' W 004°22'5 4.8
2017-Aug-25 03:58N 47°42' W 004°17'23 5.4
2017-Aug-24 23:41N 47°31' W 003°46'1 7.3
2017-Aug-24 23:29N 47°31' W 003°44'3 5.4
2017-Aug-24 23:00N 47°30' W 003°40'3 6.4
2017-Aug-24 22:30N 47°28' W 003°36'4 7.6
2017-Aug-24 22:00N 47°26' W 003°31'4 8.0
2017-Aug-24 21:30N 47°24' W 003°26'3 6.8
2017-Aug-24 21:00N 47°23' W 003°21'4 8.0
2017-Aug-24 20:29N 47°24' W 003°15'3 7.2
2017-Aug-24 20:00N 47°25' W 003°10'4 7.3
2017-Aug-24 19:30N 47°26' W 003°05'4 8.2
2017-Aug-24 19:00N 47°29' W 003°01'2 4.9
2017-Aug-24 18:30N 47°30' W 002°58'3 6.4
2017-Aug-24 18:00N 47°33' W 002°55'3 0.1
2017-Aug-23 09:56N 47°35' W 002°51'2 3.6
2017-Aug-23 09:30N 47°34' W 002°53'  
Track history (hours):
 
Tides and Currents Weather Stations Pressure Air Temp Water Temp Dewpoint Dewpoint Depression Visibility Wind Speed Wind Dir Waves Ship Positions

Calico Skies

Last reported at 2017-Sep-02 09:23 UTC. Time now 2017-Sep-20 00:07 UTC.
Position N 47°35' W 002°52'.
Warning: this ship's position is 17 days out of date.

Length 13 m.

Type: Sailing vessel. MMSI: 227579590.

Date/timePositionNaut miles runAvg speedWind from/ knotsBaromVisibWave heightAir tempDewpointWater temp
2017-Sep-02 09:23N 47°35' W 002°52'1 2.7
2017-Sep-02 09:00N 47°36' W 002°51'0 0.0
2017-Sep-02 08:30N 47°36' W 002°51'1 1.9
2017-Sep-02 08:00N 47°35' W 002°52'0 0.0
2017-Sep-01 18:24N 47°35' W 002°52'1 1.7
2017-Sep-01 18:00N 47°35' W 002°52'2 3.4
2017-Sep-01 17:30N 47°34' W 002°54'1 2.9
2017-Sep-01 17:00N 47°33' W 002°55'2 3.9
2017-Sep-01 16:30N 47°31' W 002°57'3 6.6
2017-Sep-01 16:00N 47°29' W 003°01'3 5.7
2017-Sep-01 15:30N 47°27' W 003°04'3 5.9
2017-Sep-01 15:00N 47°27' W 003°08'4 7.8
2017-Sep-01 14:30N 47°28' W 003°14'3 6.1
2017-Sep-01 14:00N 47°29' W 003°18'3 6.0
2017-Sep-01 13:30N 47°30' W 003°22'3 6.5
2017-Sep-01 13:00N 47°31' W 003°27'4 7.3
2017-Sep-01 12:30N 47°31' W 003°32'4 7.0
2017-Sep-01 11:59N 47°32' W 003°37'65 5.9
2017-Sep-01 00:58N 47°58' W 005°05'6 6.3
2017-Aug-31 23:58N 48°03' W 005°11'6 6.2
2017-Aug-31 22:58N 48°08' W 005°16'6 5.7
2017-Aug-31 21:58N 48°13' W 005°21'  
2017-Aug-26 21:54N 49°57' W 006°17'2 5.7
2017-Aug-26 21:30N 49°55' W 006°15'74 6.8
2017-Aug-26 10:30N 48°49' W 005°24'3 5.1
2017-Aug-26 10:00N 48°47' W 005°22'2 4.9
2017-Aug-26 09:30N 48°45' W 005°19'3 6.2
2017-Aug-26 09:00N 48°42' W 005°16'2 4.3
2017-Aug-26 08:29N 48°40' W 005°14'2 4.9
2017-Aug-26 08:00N 48°38' W 005°13'3 6.1
2017-Aug-26 07:31N 48°35' W 005°13'5 8.1
2017-Aug-26 06:54N 48°30' W 005°11'9 8.7
2017-Aug-26 05:53N 48°22' W 005°06'4 7.6
2017-Aug-26 05:22N 48°19' W 005°03'3 7.4
2017-Aug-26 04:58N 48°16' W 005°01'6 6.5
2017-Aug-26 03:58N 48°11' W 004°56'3 6.7
2017-Aug-26 03:30N 48°08' W 004°54'3 6.5
2017-Aug-26 03:00N 48°05' W 004°52'3 5.9
2017-Aug-26 02:30N 48°03' W 004°48'25 1.2
2017-Aug-25 04:58N 47°45' W 004°22'5 4.8
2017-Aug-25 03:58N 47°42' W 004°17'23 5.4
2017-Aug-24 23:41N 47°31' W 003°46'1 7.3
2017-Aug-24 23:29N 47°31' W 003°44'3 5.4
2017-Aug-24 23:00N 47°30' W 003°40'3 6.4
2017-Aug-24 22:30N 47°28' W 003°36'4 7.6
2017-Aug-24 22:00N 47°26' W 003°31'4 8.0
2017-Aug-24 21:30N 47°24' W 003°26'3 6.8
2017-Aug-24 21:00N 47°23' W 003°21'4 8.0
2017-Aug-24 20:29N 47°24' W 003°15'3 7.2
2017-Aug-24 20:00N 47°25' W 003°10'4 7.3
2017-Aug-24 19:30N 47°26' W 003°05'4 8.2
2017-Aug-24 19:00N 47°29' W 003°01'2 4.9
2017-Aug-24 18:30N 47°30' W 002°58'3 6.4
2017-Aug-24 18:00N 47°33' W 002°55'3 0.1
2017-Aug-23 09:56N 47°35' W 002°51'2 3.6
2017-Aug-23 09:30N 47°34' W 002°53'  

Dump ship's entire track history